MET5914 - Philadelphia to Boston

Bombardier Dash-8-Q400
850AV
1 hr 15 mins
244 nm
Scheduled - Daily

Bid/PiRep Status

Bid was submitted on Dec 21 2016.

PiRep # 74430: Approved by Sean Doyle on December 23rd, 2016 4:06 UTC

Departure

Departing from
Philadelphia (PHL)
Departure gate
Scheduled Departure
GMT 1835
Local 1435
METAR KPHL 280154Z 08007KT 7SM SCT075 SCT260 11/10 A2998 RMK AO2 SLP151 T01110100
TAF KPHL 280138Z 2802/2906 10003KT P6SM SCT080 FM280400 10003KT P6SM FEW015 FM280600 VRB03KT 5SM BR OVC007 FM280700 VRB03KT 1SM -SHRA BR OVC003 FM281400 10003KT 2SM SHRA BR OVC006 FM281900 08003KT 5SM -RADZ BR OVC015 FM290000 03007KT 4SM SHRA BR OVC007

Arrival

Arriving at
Boston (BOS)
Arrival gate
Scheduled Arrival
GMT 1950
Local 1550

Route Map

Planning Resources

KPHL-BRAND-RBV-JOANI-CREEL-SHLEP-HOFFI-HTO-SEY-BURDY-KBOS
DITCH V312 DRIFT V139 MANTA V308 ORW V16 WOONS
BRAND DCT RBV DCT JOANI DCT CREEL DCT SHLEP DCT HOFFI DCT HTO DCT SEY DCT BURDY DCT
PHLS DITCH V312 DRIFT V308 ORW WOONS
DITCH V312 DRIFT V139 PLUME V268 KOPPY V308 RICED V139 BEDYA V268 SHLEP V139 BEADS V308 ORW WOONS
Route:
OFP Layout:
Units:
Detailed Navlog:
ETOPS Planning:
Plan Stepclimbs:
Runway Analysis:
Include NOTAMS:
FIR NOTAMS:
Flight Maps:

Return Flights

MET5911
Bombardier Dash-8-Q400
1140 GMT
MET5913
Bombardier Dash-8-Q400
1640 GMT
MET5917
Bombardier Dash-8-Q400
0240 GMT

Popularity

Hub Current Bids PiReps this month Total PiReps
KMCI 0 0 1
KLAX 0 0 3
KBOS 0 0 4